Woodstock, Canada
Current Conditions -  °F | °C
As of 5:53 PM on Tuesday 25 Nov 2014 (Local Time) from KHUL Reporting Station
Clear Clear  
Wind Chill: 42°   Ceiling: Unl
Heat Index: 45°   Visibility: 10mi
Dew Point: 29°   Wind: 6mph
Humidity: 53%   Direction: 270°W
Pressure: 29.78"   Gusts: NA
Location:  46.15°N, 67.58°W
Report Text: KHUL 252153Z AUTO 27005KT 10SM CLR 07/M02 A2978 RMK AO2 SLP087 T00721017
Loading
Personal Weather Stations






























Interactive Weather Map New forecast layout! Learn more

10-Day Weather Forecast

Advertisements
Track Severe Weather on mobile